Terminal Aerodrome Forecast
Issued by NWS St Louis, MO

Home | Current Version | Previous Version | Text Only | Print | Product List | Glossary On
Versions: 1 2 3 4 5 6 7 8 9 10 11 12 13 14 15 16 17 18 19 20 21 22 23 24 25 26 27 28 29
000
FTUS43 KLSX 260315 AAB
TAFSTL
TAF AMD
KSTL 260315Z 2603/2706 19007KT P6SM SCT020 BKN080
     FM260600 20006KT P6SM BKN020
     FM261100 22007KT 6SM BR BKN010
     FM261600 23009KT P6SM BKN020
     FM262100 24009KT P6SM BKN035
     FM270100 VRB04KT P6SM SCT040 BKN080=

USA.gov is the U.S. government's official web portal to all federal, state and local government web resources and services.